createdAt,value
2022-10-03T00:00:04.001Z,49.90
2022-10-03T00:01:03.981Z,45.20
2022-10-03T00:02:04.022Z,42.10
2022-10-03T00:03:03.970Z,32.20
2022-10-03T00:04:03.990Z,29.70
2022-10-03T00:05:03.934Z,28.60
2022-10-03T00:06:03.938Z,35.80
2022-10-03T00:07:03.909Z,34.90
2022-10-03T00:08:03.909Z,28.80
2022-10-03T00:09:03.880Z,45.40
2022-10-03T00:10:03.887Z,55.20
2022-10-03T00:11:03.860Z,71.20
2022-10-03T00:12:03.859Z,43.70
2022-10-03T00:13:03.830Z,33.30
2022-10-03T00:14:03.857Z,38.10
2022-10-03T00:15:03.819Z,33.80
2022-10-03T00:16:03.886Z,42.90
2022-10-03T00:17:03.789Z,35.70
2022-10-03T00:18:03.809Z,31.80
2022-10-03T00:19:03.768Z,30.10
2022-10-03T00:20:03.769Z,30.50
2022-10-03T00:21:03.746Z,35.90
2022-10-03T00:22:03.759Z,32.60
2022-10-03T00:23:03.730Z,36.60
2022-10-03T00:24:03.718Z,36.70
2022-10-03T00:25:03.712Z,30.70
2022-10-03T00:26:03.708Z,38.10
2022-10-03T00:27:03.687Z,30.50
2022-10-03T00:28:03.712Z,27.50
2022-10-03T00:29:03.676Z,36.60
2022-10-03T00:30:03.659Z,36.20
2022-10-03T00:31:03.653Z,31.40
2022-10-03T00:32:03.632Z,33.00
2022-10-03T00:33:03.608Z,31.80
2022-10-03T00:34:03.649Z,30.60
2022-10-03T00:35:03.589Z,35.70
2022-10-03T00:36:03.609Z,25.30
2022-10-03T00:37:03.568Z,27.90
2022-10-03T00:38:03.575Z,47.30
2022-10-03T00:39:03.547Z,24.20
2022-10-03T00:40:03.548Z,31.90
2022-10-03T00:41:03.526Z,70.70
2022-10-03T00:42:03.519Z,37.60
2022-10-03T00:43:03.487Z,41.00
2022-10-03T00:44:03.496Z,39.00
2022-10-03T00:45:03.477Z,33.70
2022-10-03T00:46:03.556Z,19.80
2022-10-03T00:47:03.456Z,23.20
2022-10-03T00:48:03.469Z,32.30
2022-10-03T00:49:03.416Z,48.60
2022-10-03T00:50:03.428Z,62.30
2022-10-03T00:51:03.396Z,39.60
2022-10-03T00:52:03.418Z,38.40
2022-10-03T00:53:03.398Z,27.70
2022-10-03T00:54:03.386Z,27.00
2022-10-03T00:55:04.257Z,37.30
2022-10-03T00:56:03.376Z,30.40
2022-10-03T00:57:03.335Z,26.40
2022-10-03T00:58:03.336Z,30.60
2022-10-03T00:59:03.319Z,28.50
2022-10-03T01:00:03.359Z,28.90
2022-10-03T01:01:03.352Z,33.00
2022-10-03T01:02:03.382Z,39.20
2022-10-03T01:03:03.266Z,36.90
2022-10-03T01:04:03.275Z,34.90
2022-10-03T01:05:03.266Z,38.90
2022-10-03T01:06:03.256Z,31.40
2022-10-03T01:07:03.235Z,30.70
2022-10-03T01:08:03.226Z,42.80
2022-10-03T01:09:03.203Z,35.70
2022-10-03T01:10:03.215Z,34.00
2022-10-03T01:11:03.177Z,34.10
2022-10-03T01:12:03.183Z,24.00
2022-10-03T01:13:03.164Z,33.30
2022-10-03T01:14:03.164Z,39.10
2022-10-03T01:15:03.877Z,22.50
2022-10-03T01:16:03.199Z,27.20
2022-10-03T01:17:03.144Z,20.90
2022-10-03T01:18:03.245Z,17.90
2022-10-03T01:19:03.086Z,20.40
2022-10-03T01:20:03.094Z,30.50
2022-10-03T01:21:03.066Z,22.30
2022-10-03T01:22:03.074Z,21.30
2022-10-03T01:23:03.066Z,31.20
2022-10-03T01:24:03.053Z,20.90
2022-10-03T01:25:03.016Z,39.50
2022-10-03T01:26:03.023Z,26.50
2022-10-03T01:27:02.995Z,23.90
2022-10-03T01:28:03.039Z,23.80
2022-10-03T01:29:02.975Z,28.40
2022-10-03T01:30:02.975Z,27.90
2022-10-03T01:31:03.037Z,23.50
2022-10-03T01:32:03.593Z,48.40
2022-10-03T01:33:02.932Z,39.60
2022-10-03T01:34:02.934Z,30.90
2022-10-03T01:35:02.933Z,34.70
2022-10-03T01:36:03.653Z,24.80
2022-10-03T01:37:02.916Z,38.90
2022-10-03T01:38:02.909Z,26.00
2022-10-03T01:39:02.872Z,21.10
2022-10-03T01:40:02.935Z,24.20
2022-10-03T01:41:02.844Z,21.70
2022-10-03T01:42:02.847Z,30.10
2022-10-03T01:43:02.814Z,35.40
2022-10-03T01:44:02.824Z,21.50
2022-10-03T01:45:02.794Z,22.90
2022-10-03T01:46:02.803Z,24.10
2022-10-03T01:47:02.832Z,26.20
2022-10-03T01:48:02.783Z,25.10
2022-10-03T01:49:02.742Z,22.20
2022-10-03T01:50:02.761Z,28.60
2022-10-03T01:51:02.734Z,27.10
2022-10-03T01:52:02.723Z,23.70
2022-10-03T01:53:02.712Z,22.70
2022-10-03T01:54:02.714Z,36.20
2022-10-03T01:55:02.685Z,33.60
2022-10-03T01:56:03.530Z,20.30
2022-10-03T01:57:02.764Z,25.10
2022-10-03T01:58:02.773Z,25.30
2022-10-03T01:59:02.634Z,26.60
2022-10-03T02:00:02.644Z,18.20
2022-10-03T02:01:02.688Z,26.60
2022-10-03T02:02:02.638Z,44.00
2022-10-03T02:03:02.613Z,16.10
2022-10-03T02:04:02.593Z,28.20
2022-10-03T02:05:03.102Z,21.40
2022-10-03T02:06:03.111Z,20.10
2022-10-03T02:07:02.547Z,20.00
2022-10-03T02:08:02.820Z,28.50
2022-10-03T02:09:03.308Z,19.50
2022-10-03T02:10:02.551Z,15.00
2022-10-03T02:11:02.500Z,23.70
2022-10-03T02:12:02.501Z,34.60
2022-10-03T02:13:02.472Z,46.30
2022-10-03T02:14:02.471Z,31.90
2022-10-03T02:15:02.476Z,33.70
2022-10-03T02:16:02.522Z,19.60
2022-10-03T02:17:02.450Z,15.30
2022-10-03T02:18:02.441Z,13.30
2022-10-03T02:19:02.402Z,16.40
2022-10-03T02:20:02.407Z,13.10
2022-10-03T02:21:02.380Z,20.80
2022-10-03T02:22:02.420Z,19.30
2022-10-03T02:23:02.376Z,14.60
2022-10-03T02:24:02.371Z,18.20
2022-10-03T02:25:02.341Z,13.80
2022-10-03T02:26:02.340Z,23.20
2022-10-03T02:27:02.320Z,11.40
2022-10-03T02:28:02.355Z,12.40
2022-10-03T02:29:02.301Z,11.90
2022-10-03T02:30:02.287Z,14.60
2022-10-03T02:31:02.301Z,10.40
2022-10-03T02:32:02.289Z,12.30
2022-10-03T02:33:02.242Z,12.10
2022-10-03T02:34:02.260Z,11.10
2022-10-03T02:35:02.229Z,16.30
2022-10-03T02:36:02.238Z,13.20
2022-10-03T02:37:02.925Z,12.00
2022-10-03T02:38:03.079Z,10.80
2022-10-03T02:39:02.180Z,16.10
2022-10-03T02:40:02.228Z,19.50
2022-10-03T02:41:02.159Z,15.30
2022-10-03T02:42:02.152Z,15.40
2022-10-03T02:43:02.132Z,18.30
2022-10-03T02:44:02.128Z,16.10
2022-10-03T02:45:02.107Z,16.20
2022-10-03T02:46:02.170Z,22.30
2022-10-03T02:47:02.088Z,17.00
2022-10-03T02:48:27.000Z,15.20
2022-10-03T02:49:03.059Z,18.00
2022-10-03T02:50:02.054Z,22.70
2022-10-03T02:51:02.039Z,27.20
2022-10-03T02:52:02.028Z,23.30
2022-10-03T02:53:02.178Z,29.00
2022-10-03T02:54:02.039Z,21.80
2022-10-03T02:55:01.987Z,15.70
2022-10-03T02:56:01.989Z,20.20
2022-10-03T02:57:02.789Z,15.90
2022-10-03T02:58:02.691Z,26.00
2022-10-03T02:59:01.945Z,40.50
2022-10-03T03:00:01.938Z,28.50
2022-10-03T03:01:01.975Z,30.50
2022-10-03T03:02:01.947Z,28.00
2022-10-03T03:03:01.908Z,15.30
2022-10-03T03:04:01.878Z,16.80
2022-10-03T03:05:01.877Z,25.40
2022-10-03T03:06:01.859Z,21.20
2022-10-03T03:07:01.856Z,16.20
2022-10-03T03:08:01.837Z,17.50
2022-10-03T03:09:01.888Z,15.10
2022-10-03T03:10:01.811Z,23.20
2022-10-03T03:11:01.835Z,15.40
2022-10-03T03:12:01.798Z,15.00
2022-10-03T03:13:01.796Z,29.10
2022-10-03T03:14:01.765Z,16.30
2022-10-03T03:15:01.778Z,13.50
2022-10-03T03:16:01.786Z,11.50
2022-10-03T03:17:01.751Z,17.60
2022-10-03T03:18:02.438Z,16.60
2022-10-03T03:19:01.858Z,13.30
2022-10-03T03:20:01.866Z,14.30
2022-10-03T03:21:01.695Z,14.60
2022-10-03T03:22:01.668Z,19.70
2022-10-03T03:23:01.671Z,16.10
2022-10-03T03:24:01.667Z,25.40
2022-10-03T03:25:01.665Z,32.70
2022-10-03T03:26:01.631Z,19.30
2022-10-03T03:27:01.628Z,23.60
2022-10-03T03:28:01.645Z,25.50
2022-10-03T03:29:01.596Z,22.00
2022-10-03T03:30:01.585Z,21.10
2022-10-03T03:31:01.594Z,29.10
2022-10-03T03:32:01.581Z,20.10
2022-10-03T03:33:01.562Z,15.40
2022-10-03T03:34:01.526Z,18.70
2022-10-03T03:35:01.534Z,18.00
2022-10-03T03:36:01.553Z,16.60
2022-10-03T03:37:01.565Z,16.80
2022-10-03T03:38:01.488Z,16.20
2022-10-03T03:39:01.502Z,14.00
2022-10-03T03:40:01.588Z,17.10
2022-10-03T03:41:01.463Z,20.90
2022-10-03T03:42:01.446Z,18.70
2022-10-03T03:43:01.447Z,23.70
2022-10-03T03:44:01.414Z,16.50
2022-10-03T03:45:01.414Z,15.70
2022-10-03T03:46:01.479Z,15.60
2022-10-03T03:47:01.395Z,18.50
2022-10-03T03:48:01.372Z,20.80
2022-10-03T03:49:01.372Z,18.00
2022-10-03T03:50:01.355Z,18.60
2022-10-03T03:51:01.345Z,20.50
2022-10-03T03:52:01.326Z,19.20
2022-10-03T03:53:01.324Z,18.60
2022-10-03T03:54:01.305Z,17.20
2022-10-03T03:55:01.331Z,13.80
2022-10-03T03:56:01.278Z,17.80
2022-10-03T03:57:01.303Z,15.20
2022-10-03T03:58:01.253Z,12.40
2022-10-03T03:59:01.613Z,15.00
2022-10-03T04:00:01.244Z,17.50
2022-10-03T04:01:01.255Z,16.80
2022-10-03T04:02:01.270Z,16.80
2022-10-03T04:03:01.205Z,13.00
2022-10-03T04:04:01.193Z,18.30
2022-10-03T04:05:01.196Z,16.80
2022-10-03T04:06:01.925Z,16.50
2022-10-03T04:07:01.174Z,17.90
2022-10-03T04:08:01.144Z,14.20
2022-10-03T04:09:01.146Z,12.10
2022-10-03T04:10:01.123Z,13.50
2022-10-03T04:11:01.825Z,14.80
2022-10-03T04:12:01.095Z,17.50
2022-10-03T04:13:01.116Z,13.90
2022-10-03T04:14:01.072Z,17.00
2022-10-03T04:15:01.081Z,15.10
2022-10-03T04:16:01.042Z,20.00
2022-10-03T04:17:01.054Z,17.60
2022-10-03T04:18:01.041Z,19.90
2022-10-03T04:19:01.040Z,18.70
2022-10-03T04:20:01.747Z,18.80
2022-10-03T04:21:01.022Z,22.50
2022-10-03T04:22:00.992Z,19.00
2022-10-03T04:23:00.982Z,21.50
2022-10-03T04:24:00.951Z,23.70
2022-10-03T04:25:00.961Z,17.20
2022-10-03T04:26:00.961Z,23.90
2022-10-03T04:27:00.943Z,23.80
2022-10-03T04:28:00.965Z,26.50
2022-10-03T04:29:00.913Z,20.10
2022-10-03T04:30:00.892Z,17.30
2022-10-03T04:31:00.901Z,22.20
2022-10-03T04:32:00.926Z,19.80
2022-10-03T04:33:00.871Z,19.30
2022-10-03T04:34:00.852Z,21.40
2022-10-03T04:35:00.862Z,17.20
2022-10-03T04:36:00.821Z,17.70
2022-10-03T04:37:00.833Z,22.70
2022-10-03T04:38:00.811Z,25.20
2022-10-03T04:39:00.844Z,17.80
2022-10-03T04:40:01.481Z,15.00
2022-10-03T04:41:00.985Z,18.50
2022-10-03T04:42:00.751Z,24.30
2022-10-03T04:43:00.766Z,19.70
2022-10-03T04:44:00.733Z,21.40
2022-10-03T04:45:00.751Z,20.50
2022-10-03T04:46:00.751Z,23.10
2022-10-03T04:47:00.720Z,20.80
2022-10-03T04:48:00.690Z,19.50
2022-10-03T04:49:00.694Z,20.20
2022-10-03T04:50:01.241Z,18.60
2022-10-03T04:51:00.662Z,17.20
2022-10-03T04:52:00.638Z,24.70
2022-10-03T04:53:00.641Z,21.90
2022-10-03T04:54:00.611Z,20.70
2022-10-03T04:55:00.634Z,26.00
2022-10-03T04:56:00.621Z,22.60
2022-10-03T04:57:00.591Z,23.10
2022-10-03T04:58:04.887Z,20.20
2022-10-03T04:59:00.580Z,25.20
2022-10-03T05:00:00.568Z,24.60
2022-10-03T05:01:00.617Z,21.90
2022-10-03T05:02:00.594Z,26.60
2022-10-03T05:03:00.528Z,17.70
2022-10-03T05:04:00.511Z,26.60
2022-10-03T05:05:00.507Z,19.90
2022-10-03T05:06:00.501Z,22.90
2022-10-03T05:07:00.491Z,22.00
2022-10-03T05:08:00.460Z,25.90
2022-10-03T05:09:00.470Z,25.60
2022-10-03T05:10:05.346Z,23.70
2022-10-03T05:11:01.611Z,22.50
2022-10-03T05:12:00.469Z,26.40
2022-10-03T05:13:00.447Z,25.90
2022-10-03T05:14:00.388Z,22.30
2022-10-03T05:15:00.401Z,25.60
2022-10-03T05:16:00.371Z,28.60
2022-10-03T05:17:00.439Z,23.10
2022-10-03T05:18:00.361Z,27.60
2022-10-03T05:19:00.374Z,30.30
2022-10-03T05:20:01.089Z,25.60
2022-10-03T05:21:01.257Z,24.90
2022-10-03T05:22:00.319Z,26.90
2022-10-03T05:23:00.306Z,27.30
2022-10-03T05:24:00.318Z,31.60
2022-10-03T05:25:00.279Z,28.90
2022-10-03T05:26:17.668Z,26.10
2022-10-03T05:27:01.258Z,31.70
2022-10-03T05:28:00.293Z,35.80
2022-10-03T05:29:00.261Z,34.20
2022-10-03T05:30:00.236Z,31.80
2022-10-03T05:31:00.209Z,37.50
2022-10-03T05:32:00.255Z,25.10
2022-10-03T05:33:02.839Z,23.80
2022-10-03T05:34:00.179Z,28.20
2022-10-03T05:35:00.166Z,28.30
2022-10-03T05:36:00.148Z,29.70
2022-10-03T05:37:00.140Z,39.70
2022-10-03T05:38:00.140Z,43.80
2022-10-03T05:39:00.120Z,34.90
2022-10-03T05:40:00.113Z,33.60
2022-10-03T05:41:00.108Z,31.30
2022-10-03T05:42:21.604Z,40.60
2022-10-03T05:43:01.077Z,40.70
2022-10-03T05:44:00.048Z,36.70
2022-10-03T05:45:00.057Z,31.70
2022-10-03T05:46:00.099Z,34.90
2022-10-03T05:47:00.038Z,37.60
2022-10-03T05:48:00.036Z,39.40
2022-10-03T05:49:00.036Z,38.40
2022-10-03T05:49:59.989Z,37.00
2022-10-03T05:50:59.985Z,39.50
2022-10-03T05:51:59.959Z,37.90
2022-10-03T05:52:59.966Z,34.70
2022-10-03T05:53:59.937Z,37.90
2022-10-03T05:54:59.947Z,35.80
2022-10-03T05:55:59.921Z,34.10
2022-10-03T05:56:59.918Z,32.40
2022-10-03T05:57:59.897Z,33.30
2022-10-03T05:58:59.896Z,39.70
2022-10-03T05:59:59.876Z,31.90
2022-10-03T06:01:00.655Z,43.40
2022-10-03T06:01:59.895Z,34.10
2022-10-03T06:02:59.924Z,43.00
2022-10-03T06:04:03.829Z,32.60
2022-10-03T06:05:00.828Z,30.10
2022-10-03T06:05:59.805Z,34.90
2022-10-03T06:06:59.810Z,41.40
2022-10-03T06:07:59.784Z,28.50
2022-10-03T06:08:59.793Z,33.90
2022-10-03T06:09:59.756Z,36.40
2022-10-03T06:10:59.771Z,29.90
2022-10-03T06:11:59.736Z,38.10
2022-10-03T06:12:59.735Z,35.00
2022-10-03T06:13:59.715Z,33.70
2022-10-03T06:14:59.716Z,38.80
2022-10-03T06:15:59.785Z,35.90
2022-10-03T06:16:59.697Z,31.90
2022-10-03T06:17:59.696Z,25.10
2022-10-03T06:18:59.673Z,29.10
2022-10-03T06:19:59.650Z,26.40
2022-10-03T06:20:59.655Z,26.00
2022-10-03T06:21:59.635Z,28.20
2022-10-03T06:23:04.913Z,26.40
2022-10-03T06:24:00.605Z,29.20
2022-10-03T06:24:59.608Z,23.30
2022-10-03T06:25:59.594Z,26.30
2022-10-03T06:26:59.576Z,29.60
2022-10-03T06:27:59.599Z,29.50
2022-10-03T06:28:59.583Z,31.10
2022-10-03T06:29:59.544Z,32.10
2022-10-03T06:30:59.585Z,29.30
2022-10-03T06:31:59.509Z,30.60
2022-10-03T06:32:59.514Z,33.50
2022-10-03T06:33:59.524Z,35.70
2022-10-03T06:34:59.494Z,37.30
2022-10-03T06:35:59.475Z,38.50
2022-10-03T06:36:59.469Z,36.00
2022-10-03T06:37:59.452Z,34.70
2022-10-03T06:38:59.459Z,31.40
2022-10-03T06:39:59.424Z,37.70
2022-10-03T06:40:59.453Z,36.70
2022-10-03T06:41:59.429Z,38.70
2022-10-03T06:42:59.455Z,39.20
2022-10-03T06:43:59.377Z,36.00
2022-10-03T06:44:59.374Z,31.80
2022-10-03T06:45:59.364Z,33.50
2022-10-03T06:46:59.384Z,28.30
2022-10-03T06:47:59.325Z,28.30
2022-10-03T06:48:59.334Z,28.60
2022-10-03T06:49:59.304Z,29.10
2022-10-03T06:50:59.313Z,32.60
2022-10-03T06:51:59.311Z,26.20
2022-10-03T06:52:59.293Z,34.90
2022-10-03T06:53:59.268Z,25.70
2022-10-03T06:54:59.274Z,31.20
2022-10-03T06:55:59.245Z,30.10
2022-10-03T06:56:59.254Z,28.80
2022-10-03T06:57:59.215Z,30.10
2022-10-03T06:58:59.223Z,27.60
2022-10-03T06:59:59.206Z,26.90
2022-10-03T07:00:59.293Z,30.10
2022-10-03T07:01:59.264Z,30.30
2022-10-03T07:02:59.947Z,27.00
2022-10-03T07:03:59.274Z,33.20
2022-10-03T07:04:59.184Z,39.60
2022-10-03T07:05:59.123Z,39.40
2022-10-03T07:06:59.305Z,37.10
2022-10-03T07:07:59.124Z,35.80
2022-10-03T07:08:59.114Z,38.80
2022-10-03T07:09:59.082Z,38.60
2022-10-03T07:10:59.085Z,37.10
2022-10-03T07:11:59.064Z,34.40
2022-10-03T07:12:59.085Z,39.10
2022-10-03T07:13:59.083Z,40.60
2022-10-03T07:14:59.044Z,37.70
2022-10-03T07:16:24.060Z,36.90
2022-10-03T07:17:00.079Z,38.30
2022-10-03T07:17:59.004Z,36.20
2022-10-03T07:18:59.013Z,37.70
2022-10-03T07:19:58.981Z,40.90
2022-10-03T07:20:58.953Z,35.90
2022-10-03T07:21:58.954Z,36.80
2022-10-03T07:22:58.934Z,33.70
2022-10-03T07:23:58.943Z,35.20
2022-10-03T07:24:58.924Z,33.30
2022-10-03T07:25:58.911Z,33.30
2022-10-03T07:26:58.893Z,35.70
2022-10-03T07:27:58.932Z,30.00
2022-10-03T07:28:58.865Z,35.30
2022-10-03T07:29:58.966Z,38.60
2022-10-03T07:30:59.720Z,31.70
2022-10-03T07:31:58.862Z,30.70
2022-10-03T07:32:58.821Z,31.10
2022-10-03T07:33:58.820Z,33.00
2022-10-03T07:34:58.792Z,31.30
2022-10-03T07:35:58.818Z,34.10
2022-10-03T07:36:58.814Z,31.30
2022-10-03T07:37:58.787Z,35.00
2022-10-03T07:38:58.743Z,30.80
2022-10-03T07:39:58.752Z,29.00
2022-10-03T07:40:58.740Z,33.10
2022-10-03T07:41:58.726Z,31.50
2022-10-03T07:42:58.722Z,29.10
2022-10-03T07:43:58.711Z,26.90
2022-10-03T07:44:59.250Z,25.20
2022-10-03T07:45:58.745Z,25.30
2022-10-03T07:46:58.663Z,24.80
2022-10-03T07:47:58.662Z,25.00
2022-10-03T07:48:58.662Z,24.50
2022-10-03T07:49:58.645Z,25.60
2022-10-03T07:50:58.632Z,26.80
2022-10-03T07:51:58.612Z,25.30
2022-10-03T07:52:58.602Z,24.90
2022-10-03T07:53:58.592Z,23.20
2022-10-03T07:54:58.574Z,25.60
2022-10-03T07:55:58.602Z,23.10
2022-10-03T07:56:58.562Z,20.40
2022-10-03T07:57:58.621Z,23.00
2022-10-03T07:58:58.594Z,22.00
2022-10-03T07:59:58.522Z,21.30
2022-10-03T08:00:58.501Z,24.70
2022-10-03T08:01:58.504Z,24.40
2022-10-03T08:02:58.516Z,23.90
2022-10-03T08:03:58.563Z,22.90
2022-10-03T08:04:58.481Z,25.70
2022-10-03T08:05:58.460Z,22.70
2022-10-03T08:06:58.442Z,22.40
2022-10-03T08:07:58.439Z,23.70
2022-10-03T08:08:58.409Z,22.60
2022-10-03T08:09:58.432Z,19.90
2022-10-03T08:10:58.393Z,20.90
2022-10-03T08:11:58.390Z,22.00
2022-10-03T08:12:58.371Z,23.40
2022-10-03T08:13:58.375Z,24.60
2022-10-03T08:14:58.363Z,22.50
2022-10-03T08:15:58.419Z,19.80
2022-10-03T08:16:58.332Z,24.10
2022-10-03T08:17:58.341Z,22.80
2022-10-03T08:18:58.301Z,21.90
2022-10-03T08:19:58.311Z,19.40
2022-10-03T08:20:58.292Z,21.50
2022-10-03T08:21:58.293Z,21.70
2022-10-03T08:22:58.286Z,21.70
2022-10-03T08:23:58.291Z,20.00
2022-10-03T08:25:01.892Z,21.50
2022-10-03T08:25:58.350Z,19.40
2022-10-03T08:26:58.211Z,19.90
2022-10-03T08:27:58.258Z,19.90
2022-10-03T08:28:58.212Z,23.60
2022-10-03T08:29:58.191Z,20.80
2022-10-03T08:30:58.230Z,21.20
2022-10-03T08:31:58.180Z,19.50
2022-10-03T08:32:58.141Z,19.10
2022-10-03T08:33:58.159Z,21.40
2022-10-03T08:34:58.271Z,21.80
2022-10-03T08:35:58.130Z,19.00
2022-10-03T08:36:58.101Z,18.80
2022-10-03T08:37:58.131Z,19.00
2022-10-03T08:38:58.082Z,20.70
2022-10-03T08:39:58.113Z,19.40
2022-10-03T08:40:58.051Z,19.10
2022-10-03T08:41:58.063Z,19.20
2022-10-03T08:42:58.031Z,17.60
2022-10-03T08:43:58.079Z,17.60
2022-10-03T08:44:58.703Z,18.20
2022-10-03T08:45:58.751Z,17.00
2022-10-03T08:46:58.091Z,17.20
2022-10-03T08:47:57.992Z,18.70
2022-10-03T08:48:57.970Z,17.70
2022-10-03T08:50:01.753Z,15.70
2022-10-03T08:50:58.991Z,17.80
2022-10-03T08:51:57.956Z,17.70
2022-10-03T08:52:57.930Z,16.80
2022-10-03T08:53:57.922Z,16.90
2022-10-03T08:54:57.907Z,18.40
2022-10-03T08:55:57.915Z,16.80
2022-10-03T08:56:58.240Z,17.80
2022-10-03T08:57:57.883Z,15.90
2022-10-03T08:58:57.863Z,17.40
2022-10-03T08:59:57.864Z,16.20
2022-10-03T09:00:57.831Z,17.90
2022-10-03T09:01:57.910Z,16.90
2022-10-03T09:03:28.209Z,16.50
2022-10-03T09:03:58.878Z,15.40
2022-10-03T09:04:57.792Z,14.50
2022-10-03T09:05:57.852Z,16.20
2022-10-03T09:07:17.546Z,18.00
2022-10-03T09:07:58.912Z,16.50
2022-10-03T09:08:58.452Z,17.40
2022-10-03T09:09:58.469Z,16.90
2022-10-03T09:10:57.722Z,13.70
2022-10-03T09:11:57.720Z,14.40
2022-10-03T09:12:57.810Z,12.00
2022-10-03T09:13:57.733Z,12.90
2022-10-03T09:14:57.661Z,14.50
2022-10-03T09:15:57.715Z,12.80
2022-10-03T09:16:57.651Z,11.60
2022-10-03T09:17:57.651Z,12.90
2022-10-03T09:18:57.642Z,14.70
2022-10-03T09:19:57.632Z,12.30
2022-10-03T09:20:57.613Z,15.00
2022-10-03T09:21:57.623Z,16.90
2022-10-03T09:22:58.502Z,15.00
2022-10-03T09:23:57.601Z,15.40
2022-10-03T09:24:57.552Z,15.20
2022-10-03T09:25:57.595Z,14.80
2022-10-03T09:26:57.583Z,14.80
2022-10-03T09:27:57.554Z,13.10
2022-10-03T09:28:57.504Z,17.40
2022-10-03T09:29:57.512Z,13.70
2022-10-03T09:30:57.528Z,16.00
2022-10-03T09:31:57.483Z,14.30
2022-10-03T09:32:57.465Z,13.20
2022-10-03T09:33:57.452Z,15.60
2022-10-03T09:34:57.623Z,13.70
2022-10-03T09:35:57.431Z,16.10
2022-10-03T09:36:57.402Z,14.80
2022-10-03T09:37:57.410Z,11.40
2022-10-03T09:38:57.391Z,15.40
2022-10-03T09:39:57.407Z,13.50
2022-10-03T09:40:57.542Z,15.10
2022-10-03T09:41:57.374Z,15.60
2022-10-03T09:42:57.332Z,14.70
2022-10-03T09:43:57.363Z,13.80
2022-10-03T09:44:57.363Z,10.20
2022-10-03T09:45:57.421Z,15.40
2022-10-03T09:46:57.629Z,11.80
2022-10-03T09:47:57.623Z,12.40
2022-10-03T09:48:57.263Z,14.40
2022-10-03T09:49:57.281Z,12.00
2022-10-03T09:50:57.253Z,11.80
2022-10-03T09:51:57.261Z,13.20
2022-10-03T09:52:57.222Z,14.40
2022-10-03T09:53:57.257Z,10.70
2022-10-03T09:54:57.211Z,11.90
2022-10-03T09:55:57.266Z,11.70
2022-10-03T09:56:57.293Z,14.70
2022-10-03T09:57:57.226Z,12.40
2022-10-03T09:58:57.150Z,13.60
2022-10-03T09:59:58.021Z,12.70
2022-10-03T10:00:57.173Z,11.30
2022-10-03T10:01:57.135Z,8.80
2022-10-03T10:02:57.879Z,10.30
2022-10-03T10:03:57.157Z,9.70
2022-10-03T10:04:57.139Z,11.50
2022-10-03T10:05:57.082Z,9.70
2022-10-03T10:06:57.142Z,9.60
2022-10-03T10:07:57.088Z,12.50
2022-10-03T10:08:57.056Z,10.10
2022-10-03T10:09:57.034Z,9.80
2022-10-03T10:10:57.031Z,11.10
2022-10-03T10:11:57.012Z,7.20
2022-10-03T10:12:56.989Z,9.80
2022-10-03T10:14:11.231Z,9.40
2022-10-03T10:14:58.010Z,9.10
2022-10-03T10:15:57.046Z,10.50
2022-10-03T10:16:56.950Z,10.50
2022-10-03T10:17:56.953Z,8.80
2022-10-03T10:18:56.924Z,8.10
2022-10-03T10:19:56.943Z,5.90
2022-10-03T10:20:56.903Z,7.60
2022-10-03T10:21:56.902Z,7.80
2022-10-03T10:22:56.912Z,9.70
2022-10-03T10:23:56.883Z,6.90
2022-10-03T10:24:57.254Z,9.60
2022-10-03T10:25:57.273Z,8.00
2022-10-03T10:26:57.173Z,7.70
2022-10-03T10:27:56.996Z,6.30
2022-10-03T10:28:56.833Z,6.10
2022-10-03T10:29:56.814Z,7.30
2022-10-03T10:30:56.842Z,6.60
2022-10-03T10:31:56.798Z,8.60
2022-10-03T10:32:56.783Z,5.10
2022-10-03T10:33:56.778Z,6.50
2022-10-03T10:34:56.788Z,6.60
2022-10-03T10:35:56.761Z,5.10
2022-10-03T10:36:56.727Z,5.60
2022-10-03T10:37:56.734Z,5.30
2022-10-03T10:38:56.703Z,10.00
2022-10-03T10:39:56.701Z,5.10
2022-10-03T10:40:59.805Z,8.30
2022-10-03T10:41:56.673Z,7.10
2022-10-03T10:42:56.654Z,7.20
2022-10-03T10:43:56.681Z,4.80
2022-10-03T10:44:56.637Z,7.40
2022-10-03T10:45:56.644Z,5.30
2022-10-03T10:46:56.759Z,3.90
2022-10-03T10:47:57.407Z,5.50
2022-10-03T10:49:02.823Z,6.10
2022-10-03T10:49:58.343Z,5.60
2022-10-03T10:50:56.614Z,5.90
2022-10-03T10:51:56.571Z,4.20
2022-10-03T10:52:56.564Z,6.60
2022-10-03T10:53:56.555Z,9.10
2022-10-03T10:54:56.522Z,5.30
2022-10-03T10:55:56.516Z,6.20
2022-10-03T10:56:56.524Z,5.50
2022-10-03T10:57:56.544Z,4.70
2022-10-03T10:58:56.475Z,3.40
2022-10-03T10:59:56.477Z,4.70
2022-10-03T11:00:56.527Z,5.90
2022-10-03T11:01:56.491Z,5.60
2022-10-03T11:02:56.436Z,6.70
2022-10-03T11:03:56.487Z,4.10
2022-10-03T11:04:56.454Z,7.50
2022-10-03T11:05:56.414Z,8.40
2022-10-03T11:06:56.383Z,8.00
2022-10-03T11:07:56.405Z,8.80
2022-10-03T11:08:57.284Z,10.20
2022-10-03T11:09:56.377Z,6.30
2022-10-03T11:10:56.347Z,7.40
2022-10-03T11:11:56.335Z,5.00
2022-10-03T11:12:56.315Z,7.40
2022-10-03T11:13:57.075Z,8.10
2022-10-03T11:14:56.306Z,7.80
2022-10-03T11:15:56.346Z,13.80
2022-10-03T11:16:56.265Z,4.80
2022-10-03T11:17:56.317Z,5.00
2022-10-03T11:18:56.255Z,6.90
2022-10-03T11:19:56.265Z,6.90
2022-10-03T11:20:56.215Z,5.10
2022-10-03T11:21:56.227Z,5.50
2022-10-03T11:22:58.916Z,8.40
2022-10-03T11:23:56.218Z,5.80
2022-10-03T11:24:57.028Z,7.90
2022-10-03T11:25:56.186Z,7.20
2022-10-03T11:26:56.228Z,6.10
2022-10-03T11:27:56.397Z,6.50
2022-10-03T11:28:56.136Z,6.80
2022-10-03T11:29:56.134Z,8.00
2022-10-03T11:30:56.116Z,6.50
2022-10-03T11:31:56.155Z,6.70
2022-10-03T11:32:56.087Z,8.50
2022-10-03T11:33:56.086Z,5.70
2022-10-03T11:34:56.076Z,6.40
2022-10-03T11:35:56.067Z,6.80
2022-10-03T11:36:56.045Z,6.50
2022-10-03T11:37:56.026Z,7.80
2022-10-03T11:38:56.036Z,7.20
2022-10-03T11:39:55.996Z,9.00
2022-10-03T11:40:56.058Z,5.40
2022-10-03T11:41:55.987Z,7.20
2022-10-03T11:42:55.977Z,7.80
2022-10-03T11:44:01.410Z,6.50
2022-10-03T11:44:56.959Z,8.70
2022-10-03T11:45:56.000Z,8.10
2022-10-03T11:46:55.936Z,5.40
2022-10-03T11:47:55.916Z,7.00
2022-10-03T11:48:55.959Z,7.50
2022-10-03T11:49:55.907Z,6.00
2022-10-03T11:50:55.917Z,5.90
2022-10-03T11:51:55.857Z,5.60
2022-10-03T11:52:55.864Z,7.00
2022-10-03T11:54:13.027Z,6.80
2022-10-03T11:54:56.859Z,7.30
2022-10-03T11:55:55.829Z,5.40
2022-10-03T11:56:55.848Z,6.20
2022-10-03T11:57:56.677Z,5.60
2022-10-03T11:58:55.808Z,6.40
2022-10-03T11:59:55.767Z,6.50
2022-10-03T12:00:55.818Z,5.30
2022-10-03T12:01:55.887Z,7.60
2022-10-03T12:02:55.843Z,9.10
2022-10-03T12:03:55.727Z,9.20
2022-10-03T12:04:55.794Z,9.00
2022-10-03T12:05:55.717Z,7.30
2022-10-03T12:06:55.699Z,10.30
2022-10-03T12:07:58.394Z,9.00
2022-10-03T12:08:55.695Z,5.90
2022-10-03T12:09:56.430Z,9.00
2022-10-03T12:10:55.668Z,6.90
2022-10-03T12:11:55.627Z,6.30
2022-10-03T12:12:55.630Z,7.20
2022-10-03T12:13:55.642Z,6.60
2022-10-03T12:14:55.633Z,6.40
2022-10-03T12:15:55.598Z,6.10
2022-10-03T12:16:55.647Z,6.20
2022-10-03T12:17:55.705Z,5.80
2022-10-03T12:18:55.628Z,7.00
2022-10-03T12:19:55.548Z,6.00
2022-10-03T12:20:55.570Z,7.30
2022-10-03T12:21:55.517Z,5.20
2022-10-03T12:22:56.310Z,5.30
2022-10-03T12:23:55.519Z,6.00
2022-10-03T12:24:55.497Z,7.00
2022-10-03T12:25:55.507Z,6.80
2022-10-03T12:26:55.657Z,6.80
2022-10-03T12:27:55.494Z,9.30
2022-10-03T12:28:55.452Z,6.90
2022-10-03T12:29:55.649Z,8.00
2022-10-03T12:30:55.806Z,5.70
2022-10-03T12:31:55.519Z,7.70
2022-10-03T12:32:55.410Z,5.90
2022-10-03T12:33:55.398Z,9.80
2022-10-03T12:34:55.392Z,4.20
2022-10-03T12:35:55.360Z,6.20
2022-10-03T12:36:55.386Z,6.10
2022-10-03T12:37:55.341Z,7.20
2022-10-03T12:38:55.373Z,6.20
2022-10-03T12:39:55.309Z,6.20
2022-10-03T12:40:55.399Z,3.70
2022-10-03T12:41:55.301Z,6.20
2022-10-03T12:42:55.310Z,5.90
2022-10-03T12:43:55.276Z,5.90
2022-10-03T12:44:55.373Z,8.50
2022-10-03T12:45:55.318Z,5.30
2022-10-03T12:46:57.830Z,9.60
2022-10-03T12:47:56.748Z,3.60
2022-10-03T12:48:55.222Z,5.00
2022-10-03T12:49:56.038Z,7.20
2022-10-03T12:50:55.380Z,5.90
2022-10-03T12:51:55.199Z,6.10
2022-10-03T12:52:55.192Z,6.30
2022-10-03T12:53:55.151Z,7.40
2022-10-03T12:54:55.158Z,8.10
2022-10-03T12:55:55.134Z,4.30
2022-10-03T12:56:55.141Z,7.30
2022-10-03T12:57:55.120Z,7.00